Time;durP1;ratioP1;P1;durP2;ratioP2;P2;SDS_P1;SDS_P2;PMS_P1;PMS_P2;Temp;Humidity;BMP_temperature;BMP_pressure;BME280_temperature;BME280_humidity;BME280_pressure;Samples;Min_cycle;Max_cycle;Signal;HPM_P1;HPM_P2
2021/03/29 00:00:28;;;;;;;10.60;3.00;;;7.90;99.90;;;;;;5012240;28;20057;-88
2021/03/29 00:02:55;;;;;;;9.13;3.63;;;7.90;99.90;;;;;;5013490;28;20104;-87
2021/03/29 00:05:24;;;;;;;7.38;2.90;;;8.00;99.90;;;;;;5012132;28;20022;-88
2021/03/29 00:07:57;;;;;;;7.35;3.25;;;8.10;99.90;;;;;;5013398;28;20441;-88
2021/03/29 00:10:24;;;;;;;6.43;3.08;;;8.30;99.90;;;;;;5012187;28;20062;-87
2021/03/29 00:12:51;;;;;;;5.40;2.78;;;8.60;99.90;;;;;;5012060;28;20030;-87
2021/03/29 00:15:25;;;;;;;6.60;2.88;;;8.70;99.90;;;;;;5012087;28;20473;-88
2021/03/29 00:17:51;;;;;;;6.35;3.00;;;8.60;99.90;;;;;;5012132;28;20030;-88
2021/03/29 00:20:21;;;;;;;6.68;3.20;;;8.50;99.90;;;;;;5013553;28;20068;-87
2021/03/29 00:22:47;;;;;;;10.00;3.40;;;8.40;99.90;;;;;;5011985;28;20025;-87
2021/03/29 00:25:14;;;;;;;9.13;2.92;;;8.50;99.90;;;;;;5011735;28;20050;-87
2021/03/29 00:27:40;;;;;;;5.97;2.65;;;8.50;99.90;;;;;;5013214;28;20026;-87
2021/03/29 00:30:12;;;;;;;6.85;3.20;;;8.30;99.90;;;;;;5013175;28;20481;-87
2021/03/29 00:32:40;;;;;;;8.93;3.20;;;8.10;99.90;;;;;;5013628;28;20026;-88
2021/03/29 00:35:07;;;;;;;7.60;2.88;;;7.80;99.90;;;;;;5016533;28;20453;-88
2021/03/29 00:37:34;;;;;;;7.43;2.95;;;7.90;99.90;;;;;;5015420;28;20033;-87
2021/03/29 00:40:00;;;;;;;4.85;2.35;;;8.00;99.90;;;;;;5015629;28;20386;-87
2021/03/29 00:42:27;;;;;;;5.68;2.85;;;8.00;99.90;;;;;;5015403;28;20029;-88
2021/03/29 00:44:53;;;;;;;8.32;2.60;;;7.90;99.90;;;;;;5015274;28;20524;-88
2021/03/29 00:47:19;;;;;;;8.20;2.80;;;8.10;99.90;;;;;;5015213;28;20025;-87
2021/03/29 00:49:45;;;;;;;6.47;2.75;;;8.30;99.90;;;;;;5015231;28;20018;-88
2021/03/29 00:52:11;;;;;;;8.43;2.60;;;8.00;99.90;;;;;;5015166;28;20064;-88
2021/03/29 00:54:38;;;;;;;4.57;2.40;;;8.00;99.90;;;;;;5015140;28;20072;-88
2021/03/29 00:57:05;;;;;;;6.28;2.92;;;7.80;99.90;;;;;;5015052;28;20393;-88
2021/03/29 00:59:31;;;;;;;8.85;3.40;;;7.80;99.90;;;;;;5015053;28;20449;-87
2021/03/29 01:01:57;;;;;;;10.95;3.13;;;8.00;99.90;;;;;;5015461;28;20038;-88
2021/03/29 01:04:24;;;;;;;7.20;2.75;;;7.90;99.90;;;;;;5014861;28;20489;-87
2021/03/29 01:06:51;;;;;;;6.90;2.60;;;8.10;99.90;;;;;;5014943;28;20043;-88
2021/03/29 01:09:20;;;;;;;7.70;3.10;;;8.30;99.90;;;;;;5014857;28;20022;-87
2021/03/29 01:12:13;;;;;;;5.75;2.60;;;8.40;99.90;;;;;;5015977;28;20029;-87
2021/03/29 01:14:43;;;;;;;6.20;2.58;;;8.50;99.90;;;;;;5011231;28;20042;-88
2021/03/29 01:17:22;;;;;;;5.97;2.63;;;8.30;99.90;;;;;;5014646;28;20026;-87
2021/03/29 01:20:00;;;;;;;5.63;2.60;;;7.90;99.90;;;;;;5014652;28;20026;-87
2021/03/29 01:22:45;;;;;;;6.15;2.50;;;8.10;99.90;;;;;;5015818;28;20370;-87
2021/03/29 01:25:23;;;;;;;7.07;2.88;;;8.10;99.90;;;;;;5014344;28;20489;-87
2021/03/29 01:27:57;;;;;;;8.32;2.50;;;8.10;99.90;;;;;;5014524;28;20026;-88
2021/03/29 01:30:24;;;;;;;7.13;2.72;;;8.10;99.90;;;;;;5014464;28;20057;-88
2021/03/29 01:32:53;;;;;;;6.22;2.60;;;8.10;99.90;;;;;;5014418;28;20026;-87
2021/03/29 01:35:27;;;;;;;7.90;2.75;;;8.00;99.90;;;;;;5015882;28;20032;-87
2021/03/29 01:37:54;;;;;;;7.53;2.47;;;7.70;99.90;;;;;;5014519;28;20121;-88
2021/03/29 01:40:22;;;;;;;5.97;2.63;;;7.30;99.90;;;;;;5014326;28;20394;-87
2021/03/29 01:42:49;;;;;;;6.32;2.72;;;7.50;99.90;;;;;;5014154;28;20030;-88
2021/03/29 01:45:16;;;;;;;7.40;2.63;;;7.80;99.90;;;;;;5014097;28;20022;-87
2021/03/29 01:47:43;;;;;;;8.02;2.95;;;7.70;99.90;;;;;;5014069;28;20025;-88
2021/03/29 01:50:11;;;;;;;5.10;2.80;;;7.80;99.90;;;;;;5013960;28;20022;-88
2021/03/29 01:52:37;;;;;;;8.10;2.67;;;7.80;99.90;;;;;;5014038;28;20117;-88
2021/03/29 01:55:07;;;;;;;5.75;2.75;;;7.50;99.90;;;;;;5014143;28;20025;-88
2021/03/29 01:57:33;;;;;;;76.18;23.52;;;7.20;99.90;;;;;;5013869;28;20099;-87
2021/03/29 01:59:59;;;;;;;10.55;3.78;;;7.00;99.90;;;;;;5013991;28;20065;-87
2021/03/29 02:02:25;;;;;;;9.63;2.92;;;7.10;99.90;;;;;;5013765;28;20076;-88
2021/03/29 02:04:52;;;;;;;5.22;2.55;;;7.30;99.90;;;;;;5014973;28;20033;-88
2021/03/29 02:07:19;;;;;;;6.82;2.92;;;7.20;99.90;;;;;;5013785;28;20029;-88
2021/03/29 02:09:46;;;;;;;8.40;3.22;;;7.30;99.90;;;;;;5013701;28;20022;-87
2021/03/29 02:12:12;;;;;;;7.60;2.63;;;7.20;99.90;;;;;;5013723;28;20018;-87
2021/03/29 02:14:38;;;;;;;6.85;3.28;;;6.90;99.90;;;;;;5013624;28;20049;-88
2021/03/29 02:17:07;;;;;;;7.63;3.67;;;6.70;99.90;;;;;;5014755;28;20026;-88
2021/03/29 02:19:35;;;;;;;6.70;3.22;;;6.60;99.90;;;;;;5013491;28;20076;-88
2021/03/29 02:22:02;;;;;;;8.30;3.42;;;6.60;99.90;;;;;;5013483;28;20062;-87
2021/03/29 02:24:29;;;;;;;7.43;2.83;;;6.90;99.90;;;;;;5013206;28;20049;-87
2021/03/29 02:26:57;;;;;;;6.00;2.53;;;6.90;99.90;;;;;;5013418;28;20018;-87
2021/03/29 02:29:27;;;;;;;6.20;3.00;;;6.80;99.90;;;;;;5013338;28;20414;-87
2021/03/29 02:31:55;;;;;;;5.47;2.38;;;6.80;99.90;;;;;;5013308;28;20108;-87
2021/03/29 02:34:23;;;;;;;5.57;2.80;;;6.70;99.90;;;;;;5013254;28;20022;-87
2021/03/29 02:36:49;;;;;;;8.05;2.85;;;6.80;99.90;;;;;;5013469;28;20025;-87
2021/03/29 02:39:15;;;;;;;6.13;2.80;;;7.00;99.90;;;;;;5013239;28;20108;-87
2021/03/29 02:41:41;;;;;;;8.93;2.80;;;6.80;99.90;;;;;;5013140;28;20118;-88
2021/03/29 02:44:07;;;;;;;7.50;2.35;;;6.90;99.90;;;;;;5013046;28;20030;-88
2021/03/29 02:46:34;;;;;;;8.38;3.08;;;7.00;99.90;;;;;;5013050;28;20057;-87
2021/03/29 02:49:03;;;;;;;8.00;3.00;;;7.10;99.90;;;;;;5014335;28;20033;-88
2021/03/29 02:51:30;;;;;;;7.97;2.63;;;7.10;99.90;;;;;;5012959;28;20018;-87
2021/03/29 02:53:59;;;;;;;5.43;2.72;;;7.30;99.90;;;;;;5013036;28;20144;-87
2021/03/29 02:56:32;;;;;;;5.38;2.78;;;7.50;99.90;;;;;;5012469;28;20066;-87
2021/03/29 02:59:06;;;;;;;5.97;2.80;;;7.40;99.90;;;;;;5012907;28;20026;-87
2021/03/29 03:01:33;;;;;;;4.32;2.45;;;7.50;99.90;;;;;;5012928;28;20057;-87
2021/03/29 03:04:00;;;;;;;6.28;2.72;;;7.50;99.90;;;;;;5012812;28;20033;-88
2021/03/29 03:06:28;;;;;;;8.13;2.85;;;7.50;99.90;;;;;;5012631;28;20022;-88
2021/03/29 03:08:54;;;;;;;7.93;2.67;;;7.50;99.90;;;;;;5012700;28;20033;-87
2021/03/29 03:11:20;;;;;;;5.60;2.67;;;7.40;99.90;;;;;;5014290;28;20022;-88
2021/03/29 03:13:48;;;;;;;7.03;2.70;;;7.30;99.90;;;;;;5012690;28;20522;-87
2021/03/29 03:16:14;;;;;;;9.60;3.25;;;7.40;99.90;;;;;;5012614;28;20385;-88
2021/03/29 03:18:40;;;;;;;6.43;2.70;;;7.40;99.90;;;;;;5012625;28;20370;-87
2021/03/29 03:21:08;;;;;;;5.53;2.95;;;7.30;99.90;;;;;;5012586;28;20080;-87
2021/03/29 03:23:34;;;;;;;6.75;2.75;;;7.20;99.90;;;;;;5012500;28;20081;-87
2021/03/29 03:26:00;;;;;;;5.68;2.83;;;7.10;99.90;;;;;;5012285;28;20045;-87
2021/03/29 03:28:28;;;;;;;8.45;3.08;;;7.00;99.90;;;;;;5012575;28;20060;-88
2021/03/29 03:30:58;;;;;;;6.10;2.80;;;7.10;99.90;;;;;;5012506;28;20080;-88
2021/03/29 03:33:29;;;;;;;8.15;2.80;;;6.80;99.90;;;;;;5012502;28;20053;-87
2021/03/29 03:35:55;;;;;;;3.92;2.55;;;6.60;99.90;;;;;;5012525;28;20025;-87
2021/03/29 03:38:33;;;;;;;8.60;2.78;;;6.50;99.90;;;;;;5014138;28;20100;-88
2021/03/29 03:41:14;;;;;;;6.32;3.05;;;6.30;99.90;;;;;;5012603;28;20057;-89
2021/03/29 03:43:50;;;;;;;5.05;2.42;;;6.10;99.90;;;;;;5014067;28;20381;-89
2021/03/29 03:46:39;;;;;;;7.32;2.72;;;6.40;99.90;;;;;;5012591;28;20076;-89
2021/03/29 03:49:17;;;;;;;6.38;2.72;;;6.50;99.90;;;;;;5011809;28;20128;-88
2021/03/29 03:51:44;;;;;;;7.38;3.42;;;6.70;99.90;;;;;;5014047;28;20054;-89
2021/03/29 03:54:11;;;;;;;6.15;2.58;;;6.60;99.90;;;;;;5012492;28;20036;-88
2021/03/29 03:56:38;;;;;;;5.88;2.60;;;6.70;99.90;;;;;;5013740;28;20021;-88
2021/03/29 03:59:05;;;;;;;7.95;2.67;;;6.90;99.90;;;;;;5012477;28;20113;-88
2021/03/29 04:01:56;;;;;;;7.75;2.72;;;7.10;99.90;;;;;;5012504;28;20046;-88
2021/03/29 04:04:22;;;;;;;6.25;3.08;;;6.80;99.90;;;;;;5012653;28;20022;-89
2021/03/29 04:06:48;;;;;;;6.22;2.75;;;6.40;99.90;;;;;;5013057;28;20466;-89
2021/03/29 04:09:13;;;;;;;6.25;2.80;;;6.30;99.90;;;;;;5016314;28;20026;-88
2021/03/29 04:11:42;;;;;;;8.88;2.92;;;6.50;99.90;;;;;;5016039;28;20022;-88
2021/03/29 04:14:08;;;;;;;6.43;2.63;;;6.60;99.90;;;;;;5016047;28;20045;-89
2021/03/29 04:16:33;;;;;;;8.73;2.95;;;6.70;99.90;;;;;;5015872;28;20034;-89
2021/03/29 04:18:59;;;;;;;8.63;3.10;;;6.80;99.90;;;;;;5016134;28;20022;-89
2021/03/29 04:21:25;;;;;;;6.50;3.08;;;6.60;99.90;;;;;;5015946;28;20030;-89
2021/03/29 04:23:50;;;;;;;4.65;2.40;;;6.80;99.90;;;;;;5015840;28;20033;-89
2021/03/29 04:26:16;;;;;;;5.60;2.60;;;6.90;99.90;;;;;;5015843;28;20124;-89
2021/03/29 04:28:42;;;;;;;8.32;3.03;;;7.00;99.90;;;;;;5017135;28;20036;-89
2021/03/29 04:31:07;;;;;;;7.03;2.70;;;6.80;99.90;;;;;;5015849;28;20112;-89
2021/03/29 04:33:33;;;;;;;7.18;3.45;;;6.80;99.90;;;;;;5017138;28;20022;-89
2021/03/29 04:35:59;;;;;;;8.55;3.10;;;6.70;99.90;;;;;;5015937;28;20053;-88
2021/03/29 04:38:24;;;;;;;7.82;3.35;;;6.50;99.90;;;;;;5015726;28;20026;-89
2021/03/29 04:40:50;;;;;;;8.60;3.38;;;6.70;99.90;;;;;;5015465;28;20543;-88
2021/03/29 04:43:16;;;;;;;11.25;3.92;;;6.50;99.90;;;;;;5015605;28;20022;-89
2021/03/29 04:45:42;;;;;;;12.82;3.72;;;6.50;99.90;;;;;;5015455;28;20022;-89
2021/03/29 04:48:08;;;;;;;7.35;3.38;;;6.30;99.90;;;;;;5016700;28;20022;-89
2021/03/29 04:50:33;;;;;;;7.72;2.95;;;6.10;99.90;;;;;;5015345;28;20037;-89
2021/03/29 04:52:59;;;;;;;5.40;2.83;;;6.50;99.90;;;;;;5015254;28;20018;-88
2021/03/29 04:55:25;;;;;;;10.35;3.50;;;6.70;99.90;;;;;;5015287;28;20026;-87
2021/03/29 04:57:51;;;;;;;9.23;2.83;;;6.90;99.90;;;;;;5015370;28;20029;-89
2021/03/29 05:00:17;;;;;;;11.48;3.25;;;6.60;99.90;;;;;;5015178;28;20077;-88
2021/03/29 05:02:42;;;;;;;7.60;2.55;;;6.60;99.90;;;;;;5015466;28;20034;-88
2021/03/29 05:05:09;;;;;;;5.82;2.78;;;6.60;99.90;;;;;;5015428;28;20053;-88
2021/03/29 05:07:35;;;;;;;9.02;3.20;;;6.50;99.90;;;;;;5016662;28;20418;-89
2021/03/29 05:10:02;;;;;;;8.55;3.03;;;6.30;99.90;;;;;;5015071;28;20068;-90
2021/03/29 05:12:28;;;;;;;7.43;2.83;;;6.20;99.90;;;;;;5016413;28;20022;-88
2021/03/29 05:14:54;;;;;;;5.63;2.80;;;6.30;99.90;;;;;;5014828;28;20029;-88
2021/03/29 05:17:20;;;;;;;6.32;2.80;;;6.40;99.90;;;;;;5015605;28;20033;-89
2021/03/29 05:19:47;;;;;;;8.65;3.63;;;6.70;99.90;;;;;;5015511;28;20473;-90
2021/03/29 05:22:13;;;;;;;6.57;2.88;;;6.70;99.90;;;;;;5015914;28;20026;-90
2021/03/29 05:24:39;;;;;;;7.57;2.80;;;6.60;99.90;;;;;;5015722;28;20053;-90
2021/03/29 05:27:06;;;;;;;6.35;3.08;;;6.60;99.90;;;;;;5016493;28;20029;-90
2021/03/29 05:29:41;;;;;;;7.03;2.70;;;6.30;99.90;;;;;;5014984;28;20079;-90
2021/03/29 05:32:19;;;;;;;6.30;2.65;;;6.50;99.90;;;;;;5014985;28;20044;-89
2021/03/29 05:34:47;;;;;;;6.82;2.50;;;6.10;99.90;;;;;;5015879;28;20026;-89
2021/03/29 05:37:13;;;;;;;7.82;2.78;;;6.20;99.90;;;;;;5015764;28;20037;-89
2021/03/29 05:39:40;;;;;;;12.52;4.57;;;6.40;99.90;;;;;;5015208;28;20026;-89
2021/03/29 05:42:07;;;;;;;7.38;2.70;;;6.40;99.90;;;;;;5015342;28;20033;-89
2021/03/29 05:44:34;;;;;;;7.13;2.80;;;6.60;99.90;;;;;;5016368;28;20064;-88
2021/03/29 05:47:00;;;;;;;4.70;2.72;;;6.50;99.90;;;;;;5016047;28;20022;-89
2021/03/29 05:49:26;;;;;;;5.90;3.08;;;6.60;99.90;;;;;;5015228;28;20028;-89
2021/03/29 05:51:52;;;;;;;8.13;3.10;;;6.50;99.90;;;;;;5015092;28;20018;-89
2021/03/29 05:54:18;;;;;;;8.68;3.00;;;6.40;99.90;;;;;;5015343;28;20051;-89
2021/03/29 05:56:44;;;;;;;5.30;2.25;;;6.30;99.90;;;;;;5015220;28;20033;-89
2021/03/29 05:59:15;;;;;;;7.70;3.08;;;6.50;99.90;;;;;;5014888;28;20022;-89
2021/03/29 06:01:50;;;;;;;9.38;3.33;;;6.50;99.90;;;;;;5014900;28;20105;-90
2021/03/29 06:04:48;;;;;;;7.88;2.72;;;6.50;99.90;;;;;;5015747;28;20362;-89
2021/03/29 06:07:18;;;;;;;7.72;2.78;;;6.60;99.90;;;;;;5015862;28;20105;-89
2021/03/29 06:09:46;;;;;;;5.72;2.60;;;6.90;99.90;;;;;;5016998;28;20026;-89
2021/03/29 06:12:14;;;;;;;12.13;3.38;;;7.10;99.90;;;;;;5015875;28;20367;-89
2021/03/29 06:14:41;;;;;;;9.85;2.83;;;7.20;99.90;;;;;;5015228;28;20022;-90
2021/03/29 06:17:09;;;;;;;10.43;3.20;;;7.00;99.90;;;;;;5014886;28;20076;-90
2021/03/29 06:19:40;;;;;;;10.10;3.42;;;6.80;99.90;;;;;;5014624;28;20124;-88
2021/03/29 06:22:21;;;;;;;7.13;3.10;;;7.10;99.90;;;;;;5014285;28;20036;-88
2021/03/29 06:25:11;;;;;;;9.88;3.33;;;7.30;99.90;;;;;;5013459;28;20077;-88
2021/03/29 06:27:51;;;;;;;7.57;3.08;;;7.50;99.90;;;;;;5014642;28;20018;-88
2021/03/29 06:30:26;;;;;;;10.70;3.53;;;7.60;99.90;;;;;;5013627;28;20113;-88
2021/03/29 06:32:58;;;;;;;10.13;3.05;;;7.50;99.90;;;;;;5014192;28;20022;-88
2021/03/29 06:35:41;;;;;;;12.35;3.67;;;7.50;99.90;;;;;;5013821;28;20026;-88
2021/03/29 06:38:14;;;;;;;6.15;2.92;;;7.50;99.90;;;;;;5013704;28;20064;-88
2021/03/29 06:40:55;;;;;;;9.85;3.28;;;7.50;99.90;;;;;;5015280;28;20485;-88
2021/03/29 06:43:24;;;;;;;5.93;2.97;;;7.60;99.90;;;;;;5013625;28;20029;-88
2021/03/29 06:45:53;;;;;;;6.68;3.10;;;7.70;99.90;;;;;;5013439;28;20112;-88
2021/03/29 06:48:24;;;;;;;8.43;3.83;;;7.60;99.90;;;;;;5013788;28;20072;-88
2021/03/29 06:51:14;;;;;;;9.60;2.83;;;7.60;99.90;;;;;;5014498;28;20113;-88
2021/03/29 06:54:01;;;;;;;10.98;3.40;;;7.60;99.90;;;;;;5013703;28;20021;-88
2021/03/29 06:56:31;;;;;;;7.47;3.20;;;7.60;99.90;;;;;;5013169;28;20128;-88
2021/03/29 06:59:04;;;;;;;6.78;2.80;;;7.90;99.90;;;;;;5014572;28;20033;-89
2021/03/29 07:01:31;;;;;;;6.00;3.03;;;8.10;99.90;;;;;;5013799;28;20037;-89
2021/03/29 07:03:57;;;;;;;7.43;2.80;;;8.10;99.90;;;;;;5013557;28;20496;-88
2021/03/29 07:06:29;;;;;;;8.60;2.92;;;8.00;99.90;;;;;;5013335;28;20038;-88
2021/03/29 07:09:05;;;;;;;11.52;3.50;;;8.10;99.90;;;;;;5013887;28;20050;-89
2021/03/29 07:11:32;;;;;;;8.70;3.50;;;8.10;99.90;;;;;;5014086;28;20026;-89
2021/03/29 07:13:59;;;;;;;10.48;3.75;;;8.00;99.90;;;;;;5013861;28;20022;-88
2021/03/29 07:16:26;;;;;;;12.40;3.45;;;8.10;99.90;;;;;;5013493;28;20034;-88
2021/03/29 07:18:56;;;;;;;7.47;3.72;;;8.40;99.90;;;;;;5014771;28;20026;-88
2021/03/29 07:21:22;;;;;;;6.70;2.70;;;8.70;99.90;;;;;;5014720;28;20037;-87
2021/03/29 07:23:48;;;;;;;5.88;2.63;;;8.90;99.90;;;;;;5013732;28;20482;-87
2021/03/29 07:26:22;;;;;;;5.85;2.33;;;8.90;99.90;;;;;;5013495;28;20124;-87
2021/03/29 07:28:49;;;;;;;6.97;3.17;;;9.00;99.90;;;;;;5014191;28;20026;-87
2021/03/29 07:31:36;;;;;;;8.65;2.65;;;9.00;99.90;;;;;;5016032;28;20536;-88
2021/03/29 07:34:02;;;;;;;6.68;2.70;;;9.20;99.90;;;;;;5014712;28;20032;-88
2021/03/29 07:36:49;;;;;;;5.03;2.35;;;9.50;99.90;;;;;;5015810;28;20026;-88
2021/03/29 07:39:21;;;;;;;6.90;2.58;;;9.90;99.90;;;;;;5013975;28;20061;-87
2021/03/29 07:41:47;;;;;;;4.15;2.30;;;10.30;99.90;;;;;;5018081;28;20100;-87
2021/03/29 07:44:20;;;;;;;6.55;2.45;;;10.60;99.90;;;;;;5017955;28;20026;-87
2021/03/29 07:46:48;;;;;;;7.78;2.10;;;10.70;99.90;;;;;;5017760;28;20371;-87
2021/03/29 07:49:46;;;;;;;5.10;1.83;;;11.00;99.90;;;;;;5017840;28;20382;-86
2021/03/29 07:52:26;;;;;;;5.57;2.00;;;11.10;99.90;;;;;;5018835;28;20030;-85
2021/03/29 07:54:53;;;;;;;6.35;2.10;;;11.30;99.90;;;;;;5018248;28;20030;-86
2021/03/29 07:58:02;;;;;;;5.55;2.03;;;11.30;99.90;;;;;;5017435;28;20485;-87
2021/03/29 08:07:37;;;;;;;4.82;2.25;;;11.30;99.90;;;;;;4959759;28;20134;-86
2021/03/29 08:10:27;;;;;;;;;;;;;;;;;;;;;
2021/03/29 08:13:35;;;;;;;7.47;2.60;;;11.40;99.90;;;;;;5015716;28;20044;-88
2021/03/29 08:16:12;;;;;;;4.50;2.05;;;11.60;99.90;;;;;;5016023;28;20034;-88
2021/03/29 08:19:25;;;;;;;8.93;2.53;;;11.80;99.90;;;;;;5016307;28;20030;-88
2021/03/29 08:22:02;;;;;;;5.65;2.22;;;11.90;99.90;;;;;;5016083;28;20084;-88
2021/03/29 08:24:46;;;;;;;8.68;2.72;;;12.30;99.90;;;;;;5015452;28;20046;-88
2021/03/29 08:27:53;;;;;;;6.75;2.55;;;12.40;99.90;;;;;;5016521;28;20108;-88
2021/03/29 08:30:23;;;;;;;7.03;1.92;;;12.80;99.90;;;;;;5009461;28;20497;-89
2021/03/29 08:33:24;;;;;;;4.90;1.83;;;12.90;98.70;;;;;;5016522;28;20026;-89
2021/03/29 08:36:19;;;;;;;4.22;1.80;;;13.10;97.70;;;;;;5016215;28;20501;-89
2021/03/29 08:39:31;;;;;;;;;;;;;;;;;;;;;
2021/03/29 08:42:46;;;;;;;6.65;2.47;;;13.40;94.70;;;;;;5021567;28;20050;-90
2021/03/29 08:45:57;;;;;;;7.80;1.63;;;13.80;94.00;;;;;;5000870;28;20034;-90
2021/03/29 08:48:36;;;;;;;8.07;1.80;;;13.90;90.60;;;;;;5016789;28;20022;-90
2021/03/29 08:51:26;;;;;;;5.55;1.73;;;14.10;90.50;;;;;;5016600;28;20018;-89
2021/03/29 08:54:10;;;;;;;7.15;1.92;;;14.10;86.90;;;;;;5015034;28;20018;-90
2021/03/29 08:56:40;;;;;;;;;;;14.20;87.00;;;;;;5016074;28;20042;-89
2021/03/29 08:59:31;;;;;;;8.57;1.77;;;14.40;86.20;;;;;;5015629;28;19952;-89
2021/03/29 09:02:31;;;;;;;6.55;1.58;;;14.40;83.30;;;;;;5016175;28;20034;-90
2021/03/29 09:05:04;;;;;;;6.70;2.20;;;14.60;83.40;;;;;;5015004;28;20034;-90
2021/03/29 09:10:53;;;;;;;4.97;1.52;;;14.90;82.20;;;;;;5015663;28;20026;-90
2021/03/29 09:13:22;;;;;;;6.32;1.83;;;15.10;78.50;;;;;;5016567;28;20022;-89
2021/03/29 09:15:49;;;;;;;5.03;2.00;;;15.30;78.60;;;;;;5015588;28;20112;-89
2021/03/29 09:18:17;;;;;;;6.35;1.63;;;15.50;81.60;;;;;;5015198;28;20050;-89
2021/03/29 09:20:48;;;;;;;9.45;2.08;;;15.40;80.80;;;;;;5016185;28;20029;-88
2021/03/29 09:23:15;;;;;;;6.70;1.88;;;15.50;80.30;;;;;;5015190;28;20034;-90
2021/03/29 09:25:46;;;;;;;4.70;1.52;;;15.20;79.90;;;;;;5014856;28;20107;-86
2021/03/29 09:31:18;;;;;;;4.40;1.48;;;15.60;75.90;;;;;;5016077;28;20469;-88
2021/03/29 09:33:45;;;;;;;8.18;1.83;;;15.80;76.70;;;;;;5015443;28;20061;-88
2021/03/29 09:36:12;;;;;;;5.05;1.98;;;15.80;74.90;;;;;;5015535;28;20021;-89
2021/03/29 09:38:43;;;;;;;6.35;1.40;;;15.80;77.20;;;;;;5016138;28;20022;-89
2021/03/29 09:41:20;;;;;;;6.13;1.95;;;15.80;74.90;;;;;;5015273;28;20029;-87
2021/03/29 09:43:48;;;;;;;4.10;1.63;;;15.90;76.30;;;;;;5015468;28;20030;-88
2021/03/29 09:46:17;;;;;;;7.93;2.67;;;15.80;75.80;;;;;;5015041;28;20072;-88
2021/03/29 09:49:22;;;;;;;;;;;;;;;;;;;;;
2021/03/29 09:52:40;;;;;;;7.50;1.58;;;15.80;71.00;;;;;;5015243;28;20072;-89
2021/03/29 09:58:50;;;;;;;7.88;1.70;;;16.20;71.50;;;;;;5015778;28;20021;-89
2021/03/29 10:01:34;;;;;;;4.60;1.52;;;16.20;72.70;;;;;;5014674;28;20103;-90
2021/03/29 10:04:01;;;;;;;5.27;1.63;;;16.20;72.10;;;;;;5013611;28;20150;-85
2021/03/29 10:06:29;;;;;;;6.15;1.60;;;16.40;71.00;;;;;;5014258;28;20026;-89
2021/03/29 10:09:08;;;;;;;4.80;1.40;;;16.60;69.90;;;;;;5014891;28;20029;-90
2021/03/29 10:11:44;;;;;;;8.73;1.75;;;16.90;70.80;;;;;;5014046;28;20022;-88
2021/03/29 10:14:10;;;;;;;9.48;1.83;;;17.10;68.70;;;;;;5014070;28;20022;-89
2021/03/29 10:16:49;;;;;;;6.03;1.45;;;17.40;69.20;;;;;;5013838;28;20030;-89
2021/03/29 10:19:20;;;;;;;4.82;1.52;;;17.30;68.20;;;;;;5013940;28;20029;-89
2021/03/29 10:21:58;;;;;;;6.63;1.52;;;17.50;66.80;;;;;;5014358;28;20369;-87
2021/03/29 10:24:24;;;;;;;6.60;1.90;;;17.50;65.80;;;;;;5013730;28;20058;-89
2021/03/29 10:27:06;;;;;;;7.90;1.92;;;17.20;65.70;;;;;;5013782;28;20072;-89
2021/03/29 10:29:41;;;;;;;6.90;1.90;;;17.50;67.00;;;;;;5015132;28;20033;-89
2021/03/29 10:32:16;;;;;;;5.80;1.70;;;17.60;65.00;;;;;;5014161;28;20072;-87
2021/03/29 10:34:43;;;;;;;7.47;1.63;;;18.00;64.20;;;;;;4997833;28;20433;-89
2021/03/29 10:37:25;;;;;;;7.10;1.95;;;18.40;64.50;;;;;;5013998;28;20053;-88
2021/03/29 10:39:52;;;;;;;5.50;1.63;;;18.80;63.90;;;;;;5013736;28;20021;-85
2021/03/29 10:42:20;;;;;;;5.95;1.95;;;19.00;62.70;;;;;;5015004;28;20021;-91
2021/03/29 10:44:46;;;;;;;3.13;1.40;;;19.00;62.20;;;;;;5015092;28;20034;-90
2021/03/29 10:47:12;;;;;;;7.25;2.00;;;18.60;63.30;;;;;;5015229;28;20533;-90
2021/03/29 10:49:39;;;;;;;4.65;1.40;;;18.70;61.70;;;;;;5014835;28;20060;-87
2021/03/29 10:52:05;;;;;;;7.80;1.65;;;19.50;61.80;;;;;;5015902;28;20113;-87
2021/03/29 10:54:31;;;;;;;7.03;1.58;;;19.60;60.70;;;;;;5016034;28;20026;-88
2021/03/29 10:56:57;;;;;;;6.03;1.85;;;19.30;59.00;;;;;;5016558;28;20022;-88
2021/03/29 10:59:23;;;;;;;7.07;1.73;;;19.30;59.60;;;;;;5015071;28;20034;-88
2021/03/29 11:01:49;;;;;;;5.43;1.67;;;19.90;58.80;;;;;;5015499;28;20453;-88
2021/03/29 11:04:14;;;;;;;7.57;1.90;;;20.00;58.70;;;;;;5015275;28;20026;-85
2021/03/29 11:06:40;;;;;;;9.60;1.67;;;20.40;58.30;;;;;;5013503;28;20482;-88
2021/03/29 11:09:07;;;;;;;3.72;1.40;;;20.70;56.50;;;;;;5014548;28;20112;-89
2021/03/29 11:11:33;;;;;;;7.32;1.77;;;20.80;56.60;;;;;;5014456;28;20022;-88
2021/03/29 11:13:58;;;;;;;4.28;1.52;;;20.90;56.40;;;;;;5014184;28;20029;-88
2021/03/29 11:16:25;;;;;;;6.47;1.85;;;20.90;55.50;;;;;;5014849;28;20018;-85
2021/03/29 11:18:51;;;;;;;4.93;1.60;;;20.50;55.80;;;;;;5013868;28;20025;-84
2021/03/29 11:21:18;;;;;;;5.38;1.73;;;19.90;56.80;;;;;;5015124;28;20030;-88
2021/03/29 11:23:45;;;;;;;9.38;2.10;;;20.90;56.20;;;;;;5015081;28;20058;-87
2021/03/29 11:26:11;;;;;;;5.72;1.60;;;21.80;54.00;;;;;;4998458;28;20397;-87
2021/03/29 11:28:38;;;;;;;6.75;2.10;;;22.00;54.90;;;;;;5014686;28;20034;-86
2021/03/29 11:31:05;;;;;;;9.63;2.30;;;22.30;53.20;;;;;;5014325;28;20481;-89
2021/03/29 11:40:22;;;;;;;8.98;1.73;;;21.80;51.10;;;;;;4974969;28;20141;-87
2021/03/29 11:42:48;;;;;;;8.00;2.15;;;22.40;51.80;;;;;;5014280;28;20042;-84
2021/03/29 11:45:23;;;;;;;7.80;1.85;;;22.20;51.30;;;;;;5021808;28;20029;-85
2021/03/29 11:58:08;;;;;;;6.68;1.80;;;23.00;49.60;;;;;;5016719;28;20033;-88
2021/03/29 12:05:58;;;;;;;4.13;1.50;;;24.10;46.30;;;;;;5015940;28;20038;-88
2021/03/29 12:13:46;;;;;;;6.50;1.50;;;24.00;45.60;;;;;;5017907;28;20209;-89
2021/03/29 12:16:14;;;;;;;4.82;1.50;;;24.10;45.30;;;;;;5017147;28;20135;-91
2021/03/29 12:21:09;;;;;;;5.35;1.63;;;24.90;44.70;;;;;;5015201;28;20030;-89
2021/03/29 12:23:36;;;;;;;4.25;1.60;;;24.30;45.10;;;;;;5014805;28;20109;-88
2021/03/29 12:26:03;;;;;;;5.65;1.38;;;24.90;44.50;;;;;;5012557;28;20489;-86
2021/03/29 12:28:33;;;;;;;4.95;1.65;;;25.00;43.50;;;;;;5014573;28;20113;-89
2021/03/29 12:31:02;;;;;;;3.70;1.38;;;25.10;41.90;;;;;;5018693;28;20026;-93
2021/03/29 12:33:29;;;;;;;6.82;1.60;;;25.20;42.50;;;;;;5022512;28;20486;-91
2021/03/29 12:35:57;;;;;;;5.90;1.65;;;25.80;42.40;;;;;;5017274;28;20064;-88
2021/03/29 12:45:49;;;;;;;4.68;1.48;;;25.40;41.10;;;;;;5020143;28;20048;-90
2021/03/29 12:48:38;;;;;;;7.72;1.50;;;26.10;40.40;;;;;;4938446;29;20035;-90
2021/03/29 12:51:13;;;;;;;4.00;1.48;;;26.30;39.90;;;;;;4977418;28;20078;-91
2021/03/29 12:53:42;;;;;;;8.25;1.25;;;26.30;38.90;;;;;;5018748;28;20017;-91
2021/03/29 12:56:08;;;;;;;6.38;1.60;;;26.20;40.10;;;;;;5017738;28;20034;-91
2021/03/29 12:58:38;;;;;;;4.25;1.50;;;26.30;39.60;;;;;;5017954;28;20026;-90
2021/03/29 13:01:10;;;;;;;3.42;1.30;;;26.50;40.70;;;;;;5016145;28;20032;-90
2021/03/29 13:03:44;;;;;;;6.25;1.60;;;26.60;39.50;;;;;;5017072;28;20022;-91
2021/03/29 13:06:51;;;;;;;4.60;1.48;;;26.30;38.60;;;;;;5016493;28;20393;-91
2021/03/29 13:09:16;;;;;;;3.15;1.30;;;26.40;38.60;;;;;;5017881;28;20500;-89
2021/03/29 13:11:42;;;;;;;2.72;1.23;;;26.50;38.70;;;;;;5019008;28;20056;-92
2021/03/29 13:14:09;;;;;;;4.50;1.63;;;26.60;38.90;;;;;;5021022;28;20022;-90
2021/03/29 13:16:35;;;;;;;4.43;1.40;;;27.20;38.80;;;;;;5027760;28;20022;-89
2021/03/29 13:19:01;;;;;;;7.45;1.80;;;27.70;37.50;;;;;;5023481;28;20029;-92
2021/03/29 13:21:27;;;;;;;3.15;1.10;;;27.10;37.20;;;;;;5018656;28;20049;-92
2021/03/29 13:23:52;;;;;;;5.13;1.30;;;27.20;38.00;;;;;;5017405;28;20058;-90
2021/03/29 13:26:23;;;;;;;3.85;0.98;;;27.00;36.50;;;;;;5017418;28;20030;-91
2021/03/29 13:28:49;;;;;;;4.03;1.27;;;27.30;36.80;;;;;;5016207;28;20049;-92
2021/03/29 13:31:19;;;;;;;4.43;1.20;;;27.50;37.50;;;;;;5015861;28;20022;-91
2021/03/29 13:33:45;;;;;;;4.15;1.23;;;28.00;36.30;;;;;;5015290;28;20028;-88
2021/03/29 13:36:12;;;;;;;4.07;1.35;;;27.80;36.70;;;;;;5015770;28;20026;-90
2021/03/29 13:38:38;;;;;;;5.07;1.42;;;28.00;36.50;;;;;;5015614;28;20358;-90
2021/03/29 13:41:06;;;;;;;3.60;1.23;;;27.90;36.50;;;;;;5016023;28;20029;-90
2021/03/29 13:43:39;;;;;;;6.75;1.70;;;27.90;35.60;;;;;;5015650;28;20389;-89
2021/03/29 13:46:10;;;;;;;3.80;1.35;;;27.90;36.20;;;;;;5016456;28;20029;-91
2021/03/29 13:48:36;;;;;;;3.70;1.40;;;28.30;34.50;;;;;;5015542;28;20091;-90
2021/03/29 13:51:07;;;;;;;3.30;1.20;;;28.70;34.70;;;;;;5015911;28;20022;-90
2021/03/29 13:53:52;;;;;;;3.35;1.15;;;28.40;33.90;;;;;;5015534;28;20018;-90
2021/03/29 13:56:18;;;;;;;4.53;1.38;;;28.20;34.50;;;;;;5016722;28;20085;-90
2021/03/29 13:58:44;;;;;;;4.22;1.30;;;28.00;33.90;;;;;;5015387;28;20087;-90
2021/03/29 14:01:16;;;;;;;3.17;1.30;;;28.00;33.70;;;;;;5015636;28;20394;-91
2021/03/29 14:03:44;;;;;;;7.10;1.33;;;27.70;35.00;;;;;;5015658;28;20033;-91
2021/03/29 14:06:11;;;;;;;6.75;1.25;;;27.20;35.30;;;;;;5015135;28;20033;-90
2021/03/29 14:08:38;;;;;;;6.95;1.25;;;27.00;35.10;;;;;;5016449;28;20045;-91
2021/03/29 14:11:04;;;;;;;8.00;1.38;;;27.60;35.10;;;;;;5015115;28;20428;-89